Portada
METAR-TAF:

METAR-TAF

Aeroports :

Siem Reap, Cambodja

latitud: 13-22N, longitud: 103-51E, altitud: 15 m

Observació

L'informe es va fer fa 47 minuts, a les 11:30 UTC
Vent 3 kt del Sud
Temperatura 30°C
Humitat 66%
Pressió 1011 hPa
Visibilitat: 9000 m
Escasses núvols a una alçada de 1700 ft

METAR: VDSR 171130Z 19003KT 9000 FEW017 30/23 Q1011

Hora: 19:17 (12:17 UTC)

Pronòstic

L'informe es va fer fa 1 hora i 17 minuts, a les 11:00 UTC
Pronòstic vàlid del 17 a les 12 UTC al 18 a les 06 UTC
Vent 8 kt del Est/Nord-Est
Visibilitat 10 km o més
Núvols disperses a una alçada de 1700 ft
Núvols disperses a una alçada de 4000 ft

TAF: VDSR 171100Z 1712/1806 06008KT 9999 SCT017 SCT040

Observacions i pronòstics meteorològics de més de 4000 aeroports (METAR i TAF).

Les estacions disponibles són els punts grocs i vermells al mapa.

Posi el ratolí al punt desitjat per veure el nom de l'estació.

Feu clic per veure les observacions i els pronòstics meteorològics.

Per canviar el mapa: feu clic els botons verds amb una creu de color negre per apropar; al botó verd amb un guió per allunyar la imatge; o en les fletxes verdes per a mapes adjacents.


METAR-TAF: